Time;durP1;ratioP1;P1;durP2;ratioP2;P2;SDS_P1;SDS_P2;PMS_P1;PMS_P2;Temp;Humidity;BMP_temperature;BMP_pressure;BME280_temperature;BME280_humidity;BME280_pressure;Samples;Min_cycle;Max_cycle;Signal;HPM_P1;HPM_P2
2022/12/10 00:00:46;;;;;;;;;;;;;;;;;;;;;
2022/12/10 00:04:04;;;;;;;;;;;;;;;;;;;;;
2022/12/10 00:10:37;;;;;;;4.70;3.40;;;19.90;55.20;;;;;;6212790;23;20370;-88
2022/12/10 00:14:11;;;;;;;;;;;;;;;;;;;;;
2022/12/10 00:17:12;;;;;;;;;;;;;;;;;;;;;
2022/12/10 00:23:07;;;;;;;3.47;2.60;;;19.80;55.20;;;;;;6191625;23;20363;-91
2022/12/10 00:26:34;;;;;;;3.83;2.70;;;19.80;55.20;;;;;;6188422;23;20403;-91
2022/12/10 00:29:37;;;;;;;3.17;2.70;;;19.80;55.20;;;;;;6205088;23;20382;-91
2022/12/10 00:32:26;;;;;;;;;;;;;;;;;;;;;
2022/12/10 00:38:15;;;;;;;3.00;2.70;;;19.90;55.30;;;;;;6075164;23;20398;-91
2022/12/10 00:41:00;;;;;;;;;;;;;;;;;;;;;
2022/12/10 00:43:47;;;;;;;3.40;2.40;;;19.90;55.30;;;;;;6161953;23;20425;-90
2022/12/10 00:46:48;;;;;;;;;;;;;;;;;;;;;
2022/12/10 00:49:24;;;;;;;2.50;2.30;;;19.80;55.20;;;;;;6164999;23;20349;-90
2022/12/10 00:52:11;;;;;;;2.50;2.30;;;19.80;55.20;;;;;;6158842;23;20368;-90
2022/12/10 00:55:18;;;;;;;;;;;;;;;;;;;;;
2022/12/10 00:57:51;;;;;;;3.50;2.90;;;19.80;55.20;;;;;;6184049;23;20348;-91
2022/12/10 01:00:25;;;;;;;4.33;2.30;;;19.80;55.20;;;;;;6158505;23;20411;-92
2022/12/10 01:06:24;;;;;;;3.00;2.70;;;19.90;55.30;;;;;;6183851;23;20360;-92
2022/12/10 01:09:13;;;;;;;;;;;;;;;;;;;;;
2022/12/10 01:11:53;;;;;;;4.37;2.73;;;19.80;55.20;;;;;;6184189;23;20340;-92
2022/12/10 01:14:40;;;;;;;3.50;3.00;;;19.80;55.20;;;;;;6158458;23;20391;-92
2022/12/10 01:17:39;;;;;;;;;;;;;;;;;;;;;
2022/12/10 01:20:27;;;;;;;2.03;1.83;;;19.80;55.10;;;;;;6183511;23;20395;-91
2022/12/10 01:23:13;;;;;;;3.20;2.60;;;19.80;55.20;;;;;;6158244;23;20383;-92
2022/12/10 01:29:09;;;;;;;4.07;2.70;;;19.80;55.20;;;;;;6094342;23;20435;-92
2022/12/10 01:31:53;;;;;;;;;;;;;;;;;;;;;
2022/12/10 01:34:38;;;;;;;2.50;2.30;;;19.80;55.20;;;;;;6094560;23;20371;-92
2022/12/10 01:37:24;;;;;;;3.67;2.77;;;19.80;55.20;;;;;;6082146;23;20402;-91
2022/12/10 01:40:06;;;;;;;2.90;2.23;;;19.80;55.30;;;;;;6117382;23;20370;-91
2022/12/10 01:42:41;;;;;;;3.63;2.53;;;19.80;55.30;;;;;;6097983;23;20362;-91
2022/12/10 01:45:23;;;;;;;;;;;;;;;;;;;;;
2022/12/10 01:48:18;;;;;;;2.73;2.50;;;19.80;55.30;;;;;;6123126;23;20439;-92
2022/12/10 01:50:52;;;;;;;2.83;2.30;;;19.80;55.30;;;;;;6077818;23;20410;-91
2022/12/10 01:53:45;;;;;;;;;;;;;;;;;;;;;
2022/12/10 01:56:48;;;;;;;2.57;2.37;;;19.80;55.30;;;;;;6122621;23;20374;-92
2022/12/10 01:59:19;;;;;;;2.80;2.50;;;19.80;55.30;;;;;;6096560;23;20388;-91
2022/12/10 02:02:15;;;;;;;4.57;2.20;;;19.70;55.30;;;;;;6139488;23;20418;-90
2022/12/10 02:05:19;;;;;;;2.63;2.43;;;19.80;55.40;;;;;;6213469;23;20343;-91
2022/12/10 02:08:28;;;;;;;2.50;2.30;;;19.70;55.30;;;;;;6186926;23;20370;-91
2022/12/10 02:11:36;;;;;;;3.10;2.57;;;19.70;55.30;;;;;;6187567;23;20451;-91
2022/12/10 02:14:14;;;;;;;3.17;2.30;;;19.70;55.40;;;;;;6069785;23;20387;-92
2022/12/10 02:17:14;;;;;;;2.70;2.40;;;19.70;55.40;;;;;;6069765;23;20418;-92
2022/12/10 02:19:57;;;;;;;2.40;1.93;;;19.70;55.40;;;;;;6069864;23;20383;-91
2022/12/10 02:22:30;;;;;;;3.40;2.87;;;19.70;55.40;;;;;;6070131;23;20414;-92
2022/12/10 02:25:01;;;;;;;2.80;2.50;;;19.70;55.40;;;;;;6070105;23;20371;-91
2022/12/10 02:27:53;;;;;;;2.80;2.47;;;19.70;55.40;;;;;;6069971;23;20378;-92
2022/12/10 02:30:34;;;;;;;2.93;2.50;;;19.70;55.40;;;;;;6056320;23;20403;-91
2022/12/10 02:33:39;;;;;;;;;;;;;;;;;;;;;
2022/12/10 02:36:09;;;;;;;3.10;2.20;;;19.70;55.40;;;;;;6093925;23;20358;-90
2022/12/10 02:38:39;;;;;;;4.03;2.80;;;19.70;55.40;;;;;;6069720;23;20387;-92
2022/12/10 02:41:18;;;;;;;3.03;2.17;;;19.70;55.40;;;;;;6069864;23;20418;-92
2022/12/10 02:43:50;;;;;;;2.77;2.23;;;19.70;55.40;;;;;;6069604;23;20359;-92
2022/12/10 02:46:29;;;;;;;;;;;;;;;;;;;;;
2022/12/10 02:49:27;;;;;;;3.57;2.50;;;19.70;55.40;;;;;;6131330;23;20343;-91
2022/12/10 02:52:05;;;;;;;2.60;2.27;;;19.70;55.40;;;;;;6213050;23;20354;-92
2022/12/10 02:54:51;;;;;;;2.90;2.60;;;19.70;55.40;;;;;;6212397;23;20362;-92
2022/12/10 02:58:07;;;;;;;2.90;2.23;;;19.70;55.40;;;;;;6187475;23;20434;-92
2022/12/10 03:00:53;;;;;;;2.93;2.60;;;19.70;55.40;;;;;;6196200;23;20728;-91
2022/12/10 03:03:33;;;;;;;2.57;2.17;;;19.70;55.50;;;;;;6187044;23;20379;-92
2022/12/10 03:09:18;;;;;;;2.53;2.33;;;19.70;55.50;;;;;;6212811;23;20397;-91
2022/12/10 03:11:48;;;;;;;2.70;2.50;;;19.70;55.50;;;;;;6187235;23;20370;-92
2022/12/10 03:14:38;;;;;;;;;;;;;;;;;;;;;
2022/12/10 03:17:06;;;;;;;3.73;2.63;;;19.70;55.50;;;;;;6212947;23;20371;-91
2022/12/10 03:19:47;;;;;;;2.60;2.03;;;19.60;55.40;;;;;;6186808;23;20379;-91
2022/12/10 03:22:19;;;;;;;2.37;1.90;;;19.70;55.50;;;;;;6186996;23;20382;-91
2022/12/10 03:24:55;;;;;;;3.13;2.20;;;19.70;55.50;;;;;;6187059;23;20378;-90
2022/12/10 03:27:34;;;;;;;2.90;2.60;;;19.70;55.50;;;;;;6187206;23;20383;-92
2022/12/10 03:30:06;;;;;;;2.20;2.00;;;19.60;55.40;;;;;;6187086;23;20382;-91
2022/12/10 03:32:42;;;;;;;2.20;1.93;;;19.60;55.40;;;;;;6187000;23;20379;-92
2022/12/10 03:35:12;;;;;;;3.30;2.50;;;19.60;55.40;;;;;;6187120;23;20363;-90
2022/12/10 03:37:53;;;;;;;3.40;2.77;;;19.60;55.40;;;;;;6187055;23;20395;-91
2022/12/10 03:40:26;;;;;;;3.50;2.83;;;19.60;55.50;;;;;;6186912;23;20424;-91
2022/12/10 03:42:55;;;;;;;2.73;1.90;;;19.60;55.40;;;;;;6186985;23;20482;-90
2022/12/10 03:45:23;;;;;;;2.83;2.40;;;19.60;55.40;;;;;;6187207;23;20440;-90
2022/12/10 03:48:12;;;;;;;2.37;2.17;;;19.60;55.40;;;;;;6187111;23;20390;-91
2022/12/10 03:51:03;;;;;;;2.90;2.17;;;19.60;55.40;;;;;;6183921;23;20435;-91
2022/12/10 03:53:44;;;;;;;;;;;;;;;;;;;;;
2022/12/10 03:56:18;;;;;;;2.60;2.10;;;19.60;55.50;;;;;;6212646;23;20362;-91
2022/12/10 03:58:48;;;;;;;3.10;2.47;;;19.60;55.50;;;;;;6212757;23;20347;-91
2022/12/10 04:01:15;;;;;;;2.73;2.27;;;19.60;55.50;;;;;;6212747;23;20379;-91
2022/12/10 04:03:45;;;;;;;3.00;2.70;;;19.60;55.50;;;;;;6187274;23;20367;-91
2022/12/10 04:06:18;;;;;;;2.13;1.93;;;19.60;55.50;;;;;;6187281;23;20367;-91
2022/12/10 04:08:55;;;;;;;2.63;2.30;;;19.60;55.50;;;;;;6188985;23;20374;-91
2022/12/10 04:11:24;;;;;;;2.30;2.10;;;19.60;55.50;;;;;;6189108;23;20371;-91
2022/12/10 04:16:46;;;;;;;2.67;2.20;;;19.60;55.50;;;;;;6214357;23;20359;-91
2022/12/10 04:19:14;;;;;;;2.67;2.30;;;19.60;55.50;;;;;;6188804;23;20450;-91
2022/12/10 04:28:07;;;;;;;2.53;2.30;;;19.60;55.50;;;;;;6214316;23;20611;-92
2022/12/10 04:30:41;;;;;;;2.27;1.93;;;19.60;55.50;;;;;;6188810;23;20386;-91
2022/12/10 04:33:52;;;;;;;;;;;;;;;;;;;;;
2022/12/10 04:36:28;;;;;;;2.03;1.80;;;19.50;55.50;;;;;;6123739;23;20378;-92
2022/12/10 04:39:03;;;;;;;2.60;2.40;;;19.50;55.50;;;;;;6099878;23;20385;-91
2022/12/10 04:41:38;;;;;;;2.53;2.00;;;19.60;55.60;;;;;;6123834;23;20433;-91
2022/12/10 04:44:12;;;;;;;2.73;2.53;;;19.60;55.60;;;;;;6099478;23;20373;-91
2022/12/10 04:46:41;;;;;;;2.07;1.87;;;19.60;55.50;;;;;;6099850;23;20365;-92
2022/12/10 04:49:07;;;;;;;2.77;2.20;;;19.60;55.50;;;;;;6124052;23;20350;-91
2022/12/10 04:51:33;;;;;;;2.00;1.90;;;19.50;55.50;;;;;;6100032;23;20369;-90
2022/12/10 04:54:02;;;;;;;2.63;2.20;;;19.50;55.50;;;;;;6099838;23;20437;-91
2022/12/10 04:56:36;;;;;;;2.17;1.97;;;19.50;55.50;;;;;;6076419;23;20388;-90
2022/12/10 04:59:05;;;;;;;3.30;2.00;;;19.60;55.50;;;;;;6099228;23;20428;-90
2022/12/10 05:01:31;;;;;;;2.40;2.03;;;19.60;55.50;;;;;;6123670;23;20413;-90
2022/12/10 05:04:02;;;;;;;2.50;2.10;;;19.60;55.50;;;;;;6099436;23;20358;-91
2022/12/10 05:06:32;;;;;;;2.60;2.27;;;19.60;55.60;;;;;;6075816;23;20370;-91
2022/12/10 05:09:03;;;;;;;3.33;2.10;;;19.60;55.50;;;;;;6099832;23;20405;-91
2022/12/10 05:11:37;;;;;;;2.37;2.17;;;19.50;55.50;;;;;;6099675;23;20425;-91
2022/12/10 05:14:08;;;;;;;3.37;2.27;;;19.50;55.50;;;;;;6187495;23;20360;-91
2022/12/10 05:17:00;;;;;;;1.83;1.47;;;19.50;55.50;;;;;;6188349;23;20406;-91
2022/12/10 05:19:28;;;;;;;2.27;2.07;;;19.50;55.50;;;;;;6172698;23;20383;-91
2022/12/10 05:24:46;;;;;;;2.30;2.10;;;19.50;55.50;;;;;;6213608;23;20354;-91
2022/12/10 05:27:14;;;;;;;2.50;2.30;;;19.50;55.50;;;;;;6187944;23;20366;-90
2022/12/10 05:29:52;;;;;;;3.00;2.00;;;19.50;55.50;;;;;;6188263;23;20394;-90
2022/12/10 05:32:19;;;;;;;2.67;1.97;;;19.50;55.60;;;;;;6188297;23;20371;-91
2022/12/10 05:35:05;;;;;;;2.30;2.00;;;19.50;55.60;;;;;;6163507;23;20376;-92
2022/12/10 05:37:34;;;;;;;2.07;1.87;;;19.50;55.60;;;;;;6187934;23;20379;-91
2022/12/10 05:40:02;;;;;;;2.50;1.70;;;19.50;55.50;;;;;;6213531;23;20427;-90
2022/12/10 05:42:28;;;;;;;2.40;2.00;;;19.50;55.60;;;;;;6187865;23;20363;-91
2022/12/10 05:45:01;;;;;;;2.70;1.80;;;19.50;55.60;;;;;;6187815;23;20371;-91
2022/12/10 05:47:27;;;;;;;2.20;1.97;;;19.50;55.60;;;;;;6187988;23;20140;-91
2022/12/10 05:50:03;;;;;;;2.20;2.00;;;19.50;55.60;;;;;;6187849;23;20356;-91
2022/12/10 05:52:34;;;;;;;1.73;1.63;;;19.50;55.60;;;;;;6213971;23;20124;-91
2022/12/10 05:55:19;;;;;;;;;;;;;;;;;;;;;
2022/12/10 05:57:54;;;;;;;2.40;2.10;;;19.50;55.60;;;;;;6213549;23;20355;-91
2022/12/10 06:00:25;;;;;;;2.40;2.00;;;19.40;55.50;;;;;;6188007;23;20467;-90
2022/12/10 06:02:54;;;;;;;2.13;1.80;;;19.40;55.50;;;;;;6187373;23;20367;-91
2022/12/10 06:05:42;;;;;;;2.73;2.10;;;19.40;55.50;;;;;;6187606;23;20363;-90
2022/12/10 06:08:17;;;;;;;2.13;1.93;;;19.40;55.50;;;;;;6187023;23;20372;-92
2022/12/10 06:11:01;;;;;;;2.00;1.83;;;19.40;55.50;;;;;;6187827;23;20382;-91
2022/12/10 06:14:38;;;;;;;;;;;;;;;;;;;;;
2022/12/10 06:18:32;;;;;;;;;;;;;;;;;;;;;
2022/12/10 06:24:14;;;;;;;1.73;1.50;;;19.40;55.60;;;;;;6093566;23;20370;-91
2022/12/10 06:26:59;;;;;;;2.03;1.73;;;19.40;55.70;;;;;;6094296;23;20371;-91
2022/12/10 06:30:03;;;;;;;;;;;;;;;;;;;;;
2022/12/10 06:32:42;;;;;;;;;;;;;;;;;;;;;
2022/12/10 06:35:27;;;;;;;3.00;2.00;;;19.30;55.60;;;;;;6093739;23;20355;-90
2022/12/10 06:42:12;;;;;;;;;;;;;;;;;;;;;
2022/12/10 06:44:59;;;;;;;3.83;2.53;;;19.30;55.70;;;;;;5904193;24;20385;-90
2022/12/10 06:47:54;;;;;;;;;;;;;;;;;;;;;
2022/12/10 06:51:19;;;;;;;;;;;;;;;;;;;;;
2022/12/10 06:53:53;;;;;;;3.23;2.07;;;19.30;55.80;;;;;;5961818;24;20402;-90
2022/12/10 06:56:19;;;;;;;3.63;2.30;;;19.30;56.40;;;;;;5980638;24;20384;-91
2022/12/10 07:09:37;;;;;;;;;;;;;;;;;;;;;
2022/12/10 07:15:45;;;;;;;2.50;2.00;;;19.30;56.00;;;;;;6050636;23;20447;-92
2022/12/10 07:22:23;;;;;;;4.57;2.70;;;19.40;56.10;;;;;;6164474;23;20439;-92
2022/12/10 07:25:18;;;;;;;3.53;2.83;;;19.40;56.00;;;;;;6180796;23;20384;-92
2022/12/10 07:27:47;;;;;;;4.10;2.30;;;19.40;56.00;;;;;;6127456;23;20361;-92
2022/12/10 07:30:55;;;;;;;;;;;;;;;;;;;;;
2022/12/10 07:33:24;;;;;;;3.73;2.17;;;19.50;56.00;;;;;;6131589;23;20365;-90
2022/12/10 07:35:51;;;;;;;3.57;2.40;;;19.50;56.00;;;;;;6151845;23;20365;-91
2022/12/10 07:38:17;;;;;;;2.97;2.10;;;19.50;56.00;;;;;;6152292;23;20389;-91
2022/12/10 07:41:52;;;;;;;;;;;;;;;;;;;;;
2022/12/10 07:44:31;;;;;;;3.23;2.60;;;19.60;56.00;;;;;;6151175;23;20144;-91
2022/12/10 07:47:08;;;;;;;3.53;2.30;;;19.60;56.00;;;;;;6129504;23;20393;-90
2022/12/10 07:49:58;;;;;;;4.33;2.60;;;19.60;56.00;;;;;;6129169;23;20388;-91
2022/12/10 07:52:44;;;;;;;3.90;2.57;;;19.70;56.10;;;;;;6129023;23;20376;-91
2022/12/10 07:55:39;;;;;;;2.93;2.57;;;19.70;56.10;;;;;;6129382;23;20431;-91
2022/12/10 07:58:10;;;;;;;2.53;2.07;;;19.70;56.10;;;;;;6126351;23;20376;-90
2022/12/10 08:00:43;;;;;;;3.10;2.80;;;19.70;56.10;;;;;;6129191;23;20416;-90
2022/12/10 08:09:53;;;;;;;2.60;1.90;;;19.80;56.00;;;;;;6178922;23;20439;-91
2022/12/10 08:12:58;;;;;;;;;;;;;;;;;;;;;
2022/12/10 08:16:14;;;;;;;4.00;2.40;;;19.80;56.00;;;;;;6162603;23;20380;-91
2022/12/10 08:19:34;;;;;;;;;;;;;;;;;;;;;
2022/12/10 08:22:10;;;;;;;2.30;1.97;;;19.80;56.00;;;;;;6173794;23;20422;-92
2022/12/10 08:25:20;;;;;;;;;;;;;;;;;;;;;
2022/12/10 08:27:57;;;;;;;2.43;2.10;;;19.90;56.00;;;;;;6184279;23;20339;-91
2022/12/10 08:30:57;;;;;;;3.43;2.30;;;19.90;55.90;;;;;;6158544;23;20356;-90
2022/12/10 08:33:48;;;;;;;3.63;3.00;;;19.90;55.90;;;;;;6159261;23;20385;-89
2022/12/10 08:36:20;;;;;;;5.60;2.30;;;19.90;55.90;;;;;;6184434;23;20348;-92
2022/12/10 08:38:49;;;;;;;3.03;2.40;;;19.90;55.80;;;;;;6159044;23;20395;-91
2022/12/10 08:42:01;;;;;;;7.10;2.63;;;19.90;55.80;;;;;;6175982;23;20430;-92
2022/12/10 08:44:27;;;;;;;2.60;2.33;;;20.00;55.80;;;;;;6187635;23;20382;-90
2022/12/10 08:47:02;;;;;;;3.13;2.80;;;19.90;55.70;;;;;;6188280;23;20390;-90
2022/12/10 08:49:30;;;;;;;3.53;2.30;;;19.90;55.70;;;;;;6188423;23;20394;-91
2022/12/10 08:52:02;;;;;;;7.03;3.57;;;20.00;55.70;;;;;;6187564;23;20399;-90
2022/12/10 08:54:38;;;;;;;5.10;3.00;;;20.00;55.70;;;;;;6188100;23;20363;-89
2022/12/10 08:57:16;;;;;;;4.10;2.30;;;20.00;55.70;;;;;;6188307;23;20378;-92
2022/12/10 08:59:43;;;;;;;3.40;2.90;;;20.00;55.60;;;;;;6188211;23;20373;-92
2022/12/10 09:02:24;;;;;;;3.57;2.07;;;20.00;55.60;;;;;;6213803;23;20375;-92
2022/12/10 09:05:05;;;;;;;3.30;2.60;;;20.00;55.60;;;;;;6213869;23;20340;-93
2022/12/10 09:07:31;;;;;;;3.77;2.50;;;20.00;55.60;;;;;;6188017;23;20359;-92
2022/12/10 09:09:59;;;;;;;3.47;3.17;;;20.00;55.60;;;;;;6187853;23;20383;-92
2022/12/10 09:12:33;;;;;;;3.77;2.90;;;19.90;55.50;;;;;;6188256;23;20477;-92
2022/12/10 09:15:05;;;;;;;2.87;2.57;;;20.00;55.60;;;;;;6213986;23;20347;-91
2022/12/10 09:18:17;;;;;;;2.33;2.10;;;19.90;55.50;;;;;;6213641;23;20356;-92
2022/12/10 09:20:46;;;;;;;3.93;2.70;;;19.90;55.50;;;;;;6188039;23;20430;-92
2022/12/10 09:23:37;;;;;;;3.30;2.70;;;19.90;55.50;;;;;;6187989;23;20356;-92
2022/12/10 09:26:11;;;;;;;2.83;2.57;;;19.90;55.40;;;;;;6188030;23;20399;-90
2022/12/10 09:28:55;;;;;;;5.07;2.87;;;19.90;55.40;;;;;;6186956;23;20386;-92
2022/12/10 09:31:33;;;;;;;4.73;2.90;;;19.90;55.50;;;;;;6213640;23;20354;-92
2022/12/10 09:34:09;;;;;;;4.90;2.97;;;19.90;55.40;;;;;;6187970;23;20371;-92
2022/12/10 09:40:08;;;;;;;2.53;2.30;;;19.80;55.30;;;;;;6192827;23;20410;-92
2022/12/10 09:43:17;;;;;;;2.70;2.50;;;19.80;55.30;;;;;;6187810;23;20399;-92
2022/12/10 09:45:52;;;;;;;2.83;2.43;;;19.90;55.40;;;;;;6132366;23;20371;-92
2022/12/10 09:51:50;;;;;;;3.13;2.63;;;19.80;55.30;;;;;;6083842;23;20402;-91
2022/12/10 09:54:37;;;;;;;3.60;3.30;;;19.80;55.30;;;;;;6074524;23;20864;-91
2022/12/10 09:57:30;;;;;;;;;;;;;;;;;;;;;
2022/12/10 10:11:35;;;;;;;3.40;2.70;;;19.70;55.30;;;;;;5884303;24;20380;-92
2022/12/10 10:18:05;;;;;;;;;;;;;;;;;;;;;
2022/12/10 10:25:07;;;;;;;;;;;;;;;;;;;;;
2022/12/10 10:28:01;;;;;;;3.27;2.97;;;19.70;55.40;;;;;;5960621;24;20363;-92
2022/12/10 10:31:17;;;;;;;;;;;;;;;;;;;;;
2022/12/10 10:34:41;;;;;;;4.40;2.50;;;19.70;55.50;;;;;;5977614;23;20378;-91
2022/12/10 10:41:48;;;;;;;6.33;2.70;;;19.70;55.50;;;;;;5872870;24;20429;-91
2022/12/10 10:44:30;;;;;;;2.90;2.60;;;19.70;55.50;;;;;;5833143;24;20406;-91
2022/12/10 10:47:54;;;;;;;;;;;;;;;;;;;;;
2022/12/10 10:51:03;;;;;;;4.13;3.83;;;19.70;56.10;;;;;;5805723;24;20397;-92
2022/12/10 10:54:00;;;;;;;;;;;;;;;;;;;;;
2022/12/10 10:57:22;;;;;;;;;;;;;;;;;;;;;
2022/12/10 11:04:27;;;;;;;2.97;2.40;;;19.80;55.50;;;;;;5897379;24;20381;-91
2022/12/10 11:07:48;;;;;;;2.40;2.20;;;19.80;55.50;;;;;;5865790;24;20449;-91
2022/12/10 11:31:24;;;;;;;;;;;;;;;;;;;;;
2022/12/10 11:41:37;;;;;;;;;;;;;;;;;;;;;
2022/12/10 11:45:15;;;;;;;5.03;3.50;;;19.80;55.40;;;;;;6120443;23;20351;-92
2022/12/10 11:52:00;;;;;;;8.20;3.97;;;19.80;55.40;;;;;;6198468;23;20379;-91
2022/12/10 11:55:09;;;;;;;;;;;;;;;;;;;;;
2022/12/10 11:58:22;;;;;;;;;;;;;;;;;;;;;
2022/12/10 12:01:11;;;;;;;9.20;4.80;;;19.80;55.30;;;;;;6153120;23;20392;-88
2022/12/10 12:04:09;;;;;;;7.00;4.80;;;19.80;55.30;;;;;;6153723;23;20379;-88
2022/12/10 12:09:57;;;;;;;9.30;5.07;;;19.80;55.30;;;;;;6095386;23;20378;-88
2022/12/10 12:12:34;;;;;;;7.43;4.60;;;19.70;55.20;;;;;;6142474;23;20379;-88
2022/12/10 12:15:23;;;;;;;10.17;4.40;;;19.70;55.20;;;;;;6129376;23;20383;-88
2022/12/10 12:18:06;;;;;;;;;;;;;;;;;;;;;
2022/12/10 12:21:22;;;;;;;;;;;;;;;;;;;;;
2022/12/10 12:24:13;;;;;;;;;;;;;;;;;;;;;
2022/12/10 12:26:49;;;;;;;10.23;4.83;;;19.80;55.80;;;;;;6213674;23;20336;-88
2022/12/10 12:33:26;;;;;;;6.70;3.97;;;19.70;55.20;;;;;;6135257;23;20399;-88
2022/12/10 12:36:29;;;;;;;;;;;;;;;;;;;;;
2022/12/10 12:39:04;;;;;;;6.10;4.27;;;19.70;55.30;;;;;;6184150;23;20349;-88
2022/12/10 12:41:59;;;;;;;6.27;4.27;;;19.70;55.30;;;;;;6158972;23;20407;-87
2022/12/10 12:45:09;;;;;;;6.23;4.67;;;19.70;55.30;;;;;;6157580;23;20376;-88
2022/12/10 12:51:59;;;;;;;6.43;4.67;;;19.70;55.30;;;;;;6078144;23;20411;-87
2022/12/10 12:55:06;;;;;;;;;;;;;;;;;;;;;
2022/12/10 12:58:44;;;;;;;10.23;5.10;;;19.60;55.30;;;;;;6065509;23;20375;-87
2022/12/10 13:01:36;;;;;;;8.60;4.93;;;19.60;55.40;;;;;;5925268;24;20424;-88
2022/12/10 13:07:37;;;;;;;7.60;4.87;;;19.60;55.50;;;;;;6065702;23;20375;-87
2022/12/10 13:17:27;;;;;;;6.07;3.90;;;19.60;55.50;;;;;;6003452;23;20367;-88
2022/12/10 13:21:05;;;;;;;;;;;;;;;;;;;;;
2022/12/10 13:24:06;;;;;;;8.73;4.70;;;19.60;55.50;;;;;;5919622;24;20387;-88
2022/12/10 13:26:47;;;;;;;7.23;5.73;;;19.50;55.50;;;;;;5850374;24;20478;-88
2022/12/10 13:29:25;;;;;;;8.53;5.40;;;19.50;55.50;;;;;;6030156;23;20415;-87
2022/12/10 13:32:16;;;;;;;8.00;5.50;;;19.50;55.50;;;;;;6057145;23;20422;-88
2022/12/10 13:34:43;;;;;;;9.27;6.47;;;19.50;55.50;;;;;;6077343;23;20374;-88
2022/12/10 13:37:49;;;;;;;11.13;5.87;;;19.50;56.10;;;;;;6070399;23;20458;-88
2022/12/10 13:46:57;;;;;;;11.23;6.13;;;19.50;55.50;;;;;;6094499;23;20362;-88
2022/12/10 13:50:09;;;;;;;7.93;5.20;;;19.50;55.50;;;;;;6093517;23;20359;-88
2022/12/10 13:53:20;;;;;;;9.00;5.07;;;19.50;55.50;;;;;;6085073;23;20406;-87
2022/12/10 13:56:03;;;;;;;10.90;5.27;;;19.50;55.50;;;;;;6087297;23;20394;-88
2022/12/10 13:58:47;;;;;;;8.63;4.97;;;19.50;55.50;;;;;;6187450;23;20375;-88
2022/12/10 14:01:26;;;;;;;10.40;5.17;;;19.50;55.60;;;;;;6187468;23;20464;-87
2022/12/10 14:04:07;;;;;;;4.93;3.70;;;19.50;55.50;;;;;;6212901;23;20340;-88
2022/12/10 14:06:52;;;;;;;7.73;5.47;;;19.50;55.50;;;;;;6187619;23;20446;-88
2022/12/10 14:09:43;;;;;;;8.50;4.97;;;19.50;55.50;;;;;;6187516;23;20439;-87
2022/12/10 14:12:41;;;;;;;6.50;5.90;;;19.50;55.50;;;;;;6187646;23;20439;-87
2022/12/10 14:15:40;;;;;;;;;;;;;;;;;;;;;
2022/12/10 14:18:16;;;;;;;5.77;4.60;;;19.40;56.00;;;;;;6213299;23;20344;-88
2022/12/10 14:20:59;;;;;;;7.17;4.47;;;19.40;55.50;;;;;;6213062;23;20403;-88
2022/12/10 14:23:51;;;;;;;8.00;4.60;;;19.50;55.70;;;;;;6187220;23;20382;-88
2022/12/10 14:26:26;;;;;;;7.73;4.60;;;19.40;55.70;;;;;;6181121;23;20439;-87
2022/12/10 14:29:12;;;;;;;7.47;4.17;;;19.50;55.90;;;;;;6187199;23;20362;-87
2022/12/10 14:31:49;;;;;;;8.73;5.67;;;19.50;55.90;;;;;;6213223;23;20386;-87
2022/12/10 14:34:27;;;;;;;10.00;5.20;;;19.50;56.00;;;;;;6213309;23;20359;-87
2022/12/10 14:37:04;;;;;;;5.60;4.23;;;19.50;56.00;;;;;;6213357;23;20339;-87
2022/12/10 14:39:54;;;;;;;6.87;5.00;;;19.50;56.00;;;;;;6213109;23;20363;-87
2022/12/10 14:42:31;;;;;;;9.20;5.30;;;19.50;56.60;;;;;;6212522;23;20399;-87
2022/12/10 14:45:03;;;;;;;7.87;4.50;;;19.50;56.00;;;;;;6187230;23;20389;-88
2022/12/10 14:47:39;;;;;;;7.17;4.43;;;19.60;56.60;;;;;;6163481;23;20402;-88
2022/12/10 14:50:17;;;;;;;7.53;4.20;;;19.50;55.90;;;;;;6187086;23;20375;-87
2022/12/10 14:52:45;;;;;;;7.07;5.20;;;19.60;56.00;;;;;;6162331;23;20375;-88
2022/12/10 14:55:24;;;;;;;5.10;4.27;;;19.60;56.00;;;;;;6187366;23;20375;-88
2022/12/10 14:58:19;;;;;;;5.03;3.90;;;19.60;55.90;;;;;;6212773;23;20378;-88
2022/12/10 15:00:47;;;;;;;7.10;4.17;;;19.60;55.90;;;;;;6212161;23;20442;-87
2022/12/10 15:03:44;;;;;;;7.43;4.77;;;19.60;55.90;;;;;;6213098;23;20355;-87
2022/12/10 15:06:52;;;;;;;7.10;4.50;;;19.60;55.90;;;;;;6187282;23;20375;-88
2022/12/10 15:09:33;;;;;;;6.30;4.30;;;19.60;55.90;;;;;;6187382;23;20423;-88
2022/12/10 15:12:03;;;;;;;6.77;4.67;;;19.60;55.90;;;;;;6187033;23;20430;-87
2022/12/10 15:14:47;;;;;;;7.67;4.83;;;19.60;55.90;;;;;;6212861;23;20347;-87
2022/12/10 15:24:41;;;;;;;6.23;4.30;;;19.60;55.90;;;;;;6030935;23;20369;-88
2022/12/10 15:27:33;;;;;;;7.40;4.40;;;19.60;55.90;;;;;;6064468;23;20419;-87
2022/12/10 15:30:44;;;;;;;;;;;;;;;;;;;;;
2022/12/10 15:34:02;;;;;;;5.60;4.00;;;19.60;55.90;;;;;;6092984;23;20386;-88
2022/12/10 15:37:13;;;;;;;;;;;;;;;;;;;;;
2022/12/10 15:40:22;;;;;;;6.57;4.03;;;19.50;55.80;;;;;;6093860;23;20343;-88
2022/12/10 15:43:11;;;;;;;8.40;4.20;;;19.60;55.90;;;;;;6092456;23;20406;-88
2022/12/10 15:46:10;;;;;;;6.07;4.60;;;19.50;55.80;;;;;;6069890;23;20378;-88
2022/12/10 15:48:35;;;;;;;5.07;3.47;;;19.50;55.80;;;;;;6069256;23;20454;-87
2022/12/10 15:51:06;;;;;;;7.27;4.10;;;19.50;55.80;;;;;;6069429;23;20406;-88
2022/12/10 15:54:00;;;;;;;;;;;;;;;;;;;;;
2022/12/10 15:56:37;;;;;;;5.73;3.70;;;19.50;55.70;;;;;;6093667;23;20407;-88
2022/12/10 15:59:05;;;;;;;4.53;3.70;;;19.50;55.70;;;;;;6069811;23;20799;-88
2022/12/10 16:02:28;;;;;;;;;;;;;;;;;;;;;
2022/12/10 16:05:31;;;;;;;6.47;4.17;;;19.60;55.80;;;;;;6162910;23;20374;-88
2022/12/10 16:08:00;;;;;;;4.70;3.63;;;19.50;55.70;;;;;;6189031;23;20393;-89
2022/12/10 16:10:27;;;;;;;5.50;4.27;;;19.50;55.70;;;;;;6188782;23;20366;-89
2022/12/10 16:13:04;;;;;;;3.77;3.27;;;19.50;55.70;;;;;;6214426;23;20363;-88
2022/12/10 16:15:45;;;;;;;6.30;3.27;;;19.50;55.70;;;;;;6214436;23;20358;-89
2022/12/10 16:18:47;;;;;;;5.50;3.70;;;19.50;55.70;;;;;;6188983;23;20401;-88
2022/12/10 16:21:16;;;;;;;6.37;3.57;;;19.50;55.70;;;;;;6071003;23;20429;-88
2022/12/10 16:23:52;;;;;;;5.87;3.50;;;19.50;55.70;;;;;;6179127;23;20399;-87
2022/12/10 16:26:27;;;;;;;4.33;3.80;;;19.50;55.70;;;;;;6188501;23;20377;-88
2022/12/10 16:28:55;;;;;;;5.00;3.70;;;19.50;55.70;;;;;;6188370;23;20390;-87
2022/12/10 16:31:24;;;;;;;3.93;3.40;;;19.50;55.70;;;;;;6214135;23;20375;-87
2022/12/10 16:34:51;;;;;;;3.80;3.00;;;19.50;55.70;;;;;;6188313;23;20367;-88
2022/12/10 16:36:58;;;;;;;6.23;3.93;;;19.50;55.70;;;;;;6171563;23;20422;-88
2022/12/10 16:39:48;;;;;;;;;;;;;;;;;;;;;
2022/12/10 16:42:36;;;;;;;4.60;3.43;;;19.50;55.70;;;;;;6214202;23;20434;-88
2022/12/10 16:45:02;;;;;;;4.07;3.10;;;19.50;55.70;;;;;;6214000;23;20367;-88
2022/12/10 16:47:28;;;;;;;7.40;3.70;;;19.50;55.70;;;;;;6188931;23;20363;-88
2022/12/10 16:49:59;;;;;;;4.07;3.37;;;19.50;55.70;;;;;;6213950;23;20355;-89
2022/12/10 16:52:25;;;;;;;5.33;3.57;;;19.50;55.70;;;;;;6188284;23;20367;-88
2022/12/10 16:54:54;;;;;;;3.83;3.43;;;19.50;55.70;;;;;;6188444;23;20407;-88
2022/12/10 16:57:33;;;;;;;3.80;3.50;;;19.50;55.70;;;;;;6188162;23;20379;-87
2022/12/10 17:00:31;;;;;;;4.87;3.10;;;19.50;55.70;;;;;;6187914;23;20375;-88
2022/12/10 17:03:24;;;;;;;5.80;3.77;;;19.50;55.70;;;;;;6187697;23;20367;-88
2022/12/10 17:06:21;;;;;;;7.57;3.50;;;19.50;55.70;;;;;;6213323;23;20336;-88
2022/12/10 17:08:53;;;;;;;4.80;3.40;;;19.50;55.80;;;;;;6178605;23;20439;-88
2022/12/10 17:11:57;;;;;;;4.67;3.73;;;19.50;55.80;;;;;;6213459;23;20359;-88
2022/12/10 17:20:17;;;;;;;3.60;3.27;;;19.40;55.70;;;;;;6152850;23;20759;-89
2022/12/10 17:23:28;;;;;;;;;;;;;;;;;;;;;
2022/12/10 17:28:48;;;;;;;6.63;2.97;;;19.50;55.80;;;;;;6187388;23;20355;-88
2022/12/10 17:31:19;;;;;;;3.50;2.57;;;19.50;55.80;;;;;;6187178;23;20414;-88
2022/12/10 17:34:11;;;;;;;3.97;3.10;;;19.50;55.80;;;;;;6187671;23;20451;-87
2022/12/10 17:39:51;;;;;;;4.30;2.90;;;19.50;55.80;;;;;;6194881;23;20446;-88
2022/12/10 17:42:17;;;;;;;4.00;3.10;;;19.50;55.80;;;;;;6212751;23;20405;-88
2022/12/10 17:44:50;;;;;;;5.17;3.40;;;19.50;55.70;;;;;;6186348;23;20367;-89
2022/12/10 17:47:24;;;;;;;3.77;3.00;;;19.60;55.80;;;;;;6187500;23;20359;-88
2022/12/10 17:49:53;;;;;;;3.53;2.60;;;19.60;55.80;;;;;;6187434;23;20371;-89
2022/12/10 17:52:19;;;;;;;3.30;2.93;;;19.60;55.80;;;;;;6187656;23;20409;-88
2022/12/10 17:55:07;;;;;;;6.40;3.37;;;19.60;55.70;;;;;;6187173;23;20375;-88
2022/12/10 17:57:59;;;;;;;5.13;3.10;;;19.60;55.70;;;;;;6187615;23;20140;-88
2022/12/10 18:00:34;;;;;;;5.03;3.43;;;19.60;55.70;;;;;;6186971;23;20490;-87
2022/12/10 18:03:20;;;;;;;7.53;2.80;;;19.60;55.70;;;;;;6213268;23;20343;-88
2022/12/10 18:06:23;;;;;;;3.67;3.10;;;19.60;55.70;;;;;;6187101;23;20370;-88
2022/12/10 18:09:10;;;;;;;3.73;2.87;;;19.60;55.70;;;;;;6181044;23;20459;-87
2022/12/10 18:12:31;;;;;;;;;;;;;;;;;;;;;
2022/12/10 18:15:05;;;;;;;3.40;2.80;;;19.60;55.70;;;;;;6212759;23;20347;-88
2022/12/10 18:17:31;;;;;;;7.73;3.40;;;19.60;55.80;;;;;;6187274;23;20356;-88
2022/12/10 18:20:22;;;;;;;5.00;4.00;;;19.60;55.80;;;;;;6212984;23;20343;-89
2022/12/10 18:22:54;;;;;;;3.73;2.97;;;19.60;55.80;;;;;;6187471;23;20147;-87
2022/12/10 18:25:23;;;;;;;5.00;2.97;;;19.60;55.80;;;;;;6187499;23;20358;-88
2022/12/10 18:28:43;;;;;;;;;;;;;;;;;;;;;
2022/12/10 18:31:31;;;;;;;;;;;;;;;;;;;;;